AEE351 LGSR-LGAV
Flight info
| Callsign | AEE351 |
|---|---|
| Flight time | 0h 38m |
| Altitude | 16000 |
| Route | NETIS M601 MIL Y144 BADEL |
| Aircraft | A20N/M-SDE2E3FGHIRWXY/LB1 |
Departure
| Time | 2026-04-21 14:51 |
|---|---|
| Airport | Santorini International Airport (LGSR) |
Arrival
| Time | 2026-04-21 15:29 |
|---|---|
| Airport | Athens Eleftherios Venizelos International Airport (LGAV) |
| Time | Latitude | Longitude | Altitude | Speed | Heading |
|---|---|---|---|---|---|
| 2026-04-21 14:33 | 36.40254 | 25.47417 | 107 ft | 0 kts | 258° |
| 2026-04-21 14:41 | 36.40255 | 25.47424 | 107 ft | 1 kts | 258° |
| 2026-04-21 14:41 | 36.40257 | 25.47433 | 107 ft | 1 kts | 258° |
| 2026-04-21 14:41 | 36.40258 | 25.47442 | 107 ft | 1 kts | 258° |
| 2026-04-21 14:41 | 36.40260 | 25.47453 | 107 ft | 2 kts | 260° |
| 2026-04-21 14:42 | 36.40260 | 25.47471 | 107 ft | 2 kts | 291° |
| 2026-04-21 14:42 | 36.40256 | 25.47481 | 107 ft | 1 kts | 336° |
| 2026-04-21 14:44 | 36.40257 | 25.47481 | 107 ft | 1 kts | 336° |
| 2026-04-21 14:44 | 36.40269 | 25.47474 | 105 ft | 3 kts | 336° |
| 2026-04-21 14:45 | 36.40294 | 25.47461 | 108 ft | 5 kts | 337° |
| 2026-04-21 14:45 | 36.40331 | 25.47442 | 110 ft | 7 kts | 337° |
| 2026-04-21 14:45 | 36.40376 | 25.47422 | 111 ft | 5 kts | 352° |
| 2026-04-21 14:45 | 36.40408 | 25.47433 | 112 ft | 3 kts | 40° |
| 2026-04-21 14:46 | 36.40424 | 25.47467 | 111 ft | 7 kts | 63° |
| 2026-04-21 14:46 | 36.40460 | 25.47495 | 113 ft | 4 kts | 331° |
| 2026-04-21 14:46 | 36.40492 | 25.47477 | 113 ft | 6 kts | 339° |
| 2026-04-21 14:46 | 36.40537 | 25.47456 | 113 ft | 8 kts | 340° |
| 2026-04-21 14:47 | 36.40593 | 25.47431 | 116 ft | 9 kts | 340° |
| 2026-04-21 14:47 | 36.40657 | 25.47401 | 117 ft | 11 kts | 338° |
| 2026-04-21 14:47 | 36.40700 | 25.47380 | 119 ft | 0 kts | 338° |
| 2026-04-21 14:47 | 36.40710 | 25.47375 | 121 ft | 3 kts | 338° |
| 2026-04-21 14:48 | 36.40733 | 25.47364 | 121 ft | 4 kts | 339° |
| 2026-04-21 14:48 | 36.40768 | 25.47347 | 124 ft | 6 kts | 339° |
| 2026-04-21 14:48 | 36.40813 | 25.47340 | 122 ft | 7 kts | 19° |
| 2026-04-21 14:48 | 36.40827 | 25.47358 | 126 ft | 0 kts | 56° |
| 2026-04-21 14:49 | 36.40830 | 25.47366 | 125 ft | 3 kts | 59° |
| 2026-04-21 14:49 | 36.40843 | 25.47407 | 123 ft | 8 kts | 71° |
| 2026-04-21 14:50 | 36.40851 | 25.47454 | 126 ft | 8 kts | 94° |
| 2026-04-21 14:50 | 36.40789 | 25.47509 | 121 ft | 11 kts | 159° |
| 2026-04-21 14:50 | 36.40645 | 25.47575 | 113 ft | 55 kts | 161° |
| 2026-04-21 14:50 | 36.39988 | 25.47880 | 97 ft | 144 kts | 159° |
| 2026-04-21 14:51 | 36.38895 | 25.48416 | 520 ft | 181 kts | 159° |
| 2026-04-21 14:51 | 36.37767 | 25.49183 | 1520 ft | 190 kts | 152° |
| 2026-04-21 14:51 | 36.36621 | 25.50081 | 2452 ft | 204 kts | 149° |
| 2026-04-21 14:51 | 36.35361 | 25.51075 | 3171 ft | 224 kts | 152° |
| 2026-04-21 14:52 | 36.34023 | 25.52079 | 4211 ft | 226 kts | 153° |
| 2026-04-21 14:52 | 36.32654 | 25.53061 | 5260 ft | 229 kts | 153° |
| 2026-04-21 14:52 | 36.31244 | 25.54045 | 6252 ft | 237 kts | 153° |
| 2026-04-21 14:52 | 36.29781 | 25.55051 | 7168 ft | 244 kts | 154° |
| 2026-04-21 14:53 | 36.28253 | 25.56025 | 8105 ft | 247 kts | 164° |
| 2026-04-21 14:53 | 36.26577 | 25.56288 | 9109 ft | 243 kts | 191° |
| 2026-04-21 14:53 | 36.25003 | 25.55663 | 9993 ft | 241 kts | 216° |
| 2026-04-21 14:53 | 36.23794 | 25.54271 | 10890 ft | 236 kts | 240° |
| 2026-04-21 14:54 | 36.23154 | 25.52416 | 11809 ft | 234 kts | 262° |
| 2026-04-21 14:54 | 36.22923 | 25.50374 | 12490 ft | 249 kts | 268° |
| 2026-04-21 14:54 | 36.22851 | 25.48160 | 13166 ft | 261 kts | 273° |
| 2026-04-21 14:54 | 36.22966 | 25.45914 | 14112 ft | 262 kts | 278° |
| 2026-04-21 14:55 | 36.23271 | 25.43683 | 15001 ft | 263 kts | 284° |
| 2026-04-21 14:55 | 36.23771 | 25.41483 | 15618 ft | 267 kts | 290° |
| 2026-04-21 14:55 | 36.24473 | 25.39350 | 15871 ft | 268 kts | 296° |
| 2026-04-21 14:55 | 36.25360 | 25.37344 | 15979 ft | 274 kts | 302° |
| 2026-04-21 14:56 | 36.26533 | 25.35294 | 15995 ft | 308 kts | 308° |
| 2026-04-21 14:56 | 36.28057 | 25.33243 | 15992 ft | 338 kts | 315° |
| 2026-04-21 14:56 | 36.29908 | 25.31368 | 15988 ft | 345 kts | 323° |
| 2026-04-21 14:56 | 36.31975 | 25.29833 | 15981 ft | 347 kts | 331° |
| 2026-04-21 14:57 | 36.34207 | 25.28678 | 15981 ft | 349 kts | 339° |
| 2026-04-21 14:57 | 36.36547 | 25.27934 | 15976 ft | 352 kts | 347° |
| 2026-04-21 14:57 | 36.38992 | 25.27614 | 15976 ft | 355 kts | 355° |
| 2026-04-21 14:57 | 36.41481 | 25.27748 | 15978 ft | 359 kts | 3° |
| 2026-04-21 14:58 | 36.43943 | 25.28349 | 15974 ft | 362 kts | 12° |
| 2026-04-21 14:58 | 36.46362 | 25.29241 | 15969 ft | 361 kts | 7° |
| 2026-04-21 14:58 | 36.48829 | 25.29325 | 15972 ft | 352 kts | 347° |
| 2026-04-21 14:58 | 36.51125 | 25.28374 | 15973 ft | 346 kts | 328° |
| 2026-04-21 14:59 | 36.52966 | 25.26538 | 15974 ft | 342 kts | 310° |
| 2026-04-21 14:59 | 36.54383 | 25.24169 | 15971 ft | 342 kts | 303° |
| 2026-04-21 14:59 | 36.55667 | 25.21683 | 15969 ft | 342 kts | 302° |
| 2026-04-21 14:59 | 36.56972 | 25.19196 | 15972 ft | 342 kts | 303° |
| 2026-04-21 15:00 | 36.58317 | 25.16752 | 15980 ft | 342 kts | 304° |
| 2026-04-21 15:00 | 36.59679 | 25.14369 | 15971 ft | 342 kts | 305° |
| 2026-04-21 15:00 | 36.61078 | 25.11974 | 15970 ft | 342 kts | 305° |
| 2026-04-21 15:00 | 36.62483 | 25.09590 | 15970 ft | 342 kts | 306° |
| 2026-04-21 15:01 | 36.63890 | 25.07206 | 15964 ft | 342 kts | 305° |
| 2026-04-21 15:01 | 36.65303 | 25.04811 | 15966 ft | 342 kts | 305° |
| 2026-04-21 15:01 | 36.66711 | 25.02420 | 15965 ft | 342 kts | 305° |
| 2026-04-21 15:01 | 36.68120 | 25.00025 | 15958 ft | 343 kts | 305° |
| 2026-04-21 15:02 | 36.69413 | 24.97541 | 15961 ft | 342 kts | 297° |
| 2026-04-21 15:02 | 36.70292 | 24.94833 | 15965 ft | 342 kts | 287° |
| 2026-04-21 15:02 | 36.70752 | 24.91922 | 15962 ft | 342 kts | 278° |
| 2026-04-21 15:02 | 36.71034 | 24.88972 | 15968 ft | 343 kts | 278° |
| 2026-04-21 15:03 | 36.71330 | 24.86025 | 15964 ft | 343 kts | 278° |
| 2026-04-21 15:03 | 36.71630 | 24.83077 | 15963 ft | 343 kts | 278° |
| 2026-04-21 15:03 | 36.71930 | 24.80126 | 15963 ft | 343 kts | 278° |
| 2026-04-21 15:03 | 36.72230 | 24.77176 | 15964 ft | 343 kts | 278° |
| 2026-04-21 15:04 | 36.72525 | 24.74255 | 15964 ft | 343 kts | 278° |
| 2026-04-21 15:04 | 36.72822 | 24.71309 | 15963 ft | 342 kts | 278° |
| 2026-04-21 15:04 | 36.73118 | 24.68361 | 15961 ft | 342 kts | 278° |
| 2026-04-21 15:04 | 36.73413 | 24.65413 | 15963 ft | 343 kts | 278° |
| 2026-04-21 15:05 | 36.73707 | 24.62461 | 15965 ft | 342 kts | 278° |
| 2026-04-21 15:05 | 36.74296 | 24.56549 | 15961 ft | 343 kts | 278° |
| 2026-04-21 15:05 | 36.74719 | 24.53629 | 15966 ft | 342 kts | 286° |
| 2026-04-21 15:06 | 36.75562 | 24.50862 | 15963 ft | 342 kts | 296° |
| 2026-04-21 15:06 | 36.76783 | 24.48360 | 15960 ft | 342 kts | 305° |
| 2026-04-21 15:06 | 36.78179 | 24.45949 | 15961 ft | 342 kts | 304° |
| 2026-04-21 15:06 | 36.79567 | 24.43527 | 15954 ft | 342 kts | 304° |
| 2026-04-21 15:07 | 36.80950 | 24.41100 | 15956 ft | 342 kts | 304° |
| 2026-04-21 15:07 | 36.82327 | 24.38678 | 15956 ft | 342 kts | 304° |
| 2026-04-21 15:07 | 36.83699 | 24.36240 | 15950 ft | 342 kts | 304° |
| 2026-04-21 15:07 | 36.85090 | 24.33871 | 15943 ft | 343 kts | 310° |
| 2026-04-21 15:08 | 36.86983 | 24.32058 | 15952 ft | 348 kts | 331° |
| 2026-04-21 15:08 | 36.89327 | 24.31221 | 15951 ft | 356 kts | 351° |
| 2026-04-21 15:08 | 36.91823 | 24.31425 | 15949 ft | 362 kts | 5° |
| 2026-04-21 15:08 | 36.94312 | 24.31919 | 15949 ft | 362 kts | 5° |
| 2026-04-21 15:09 | 36.96806 | 24.32417 | 15944 ft | 362 kts | 5° |
| 2026-04-21 15:09 | 36.99295 | 24.32914 | 15952 ft | 362 kts | 5° |
| 2026-04-21 15:09 | 37.01787 | 24.33410 | 15944 ft | 362 kts | 5° |
| 2026-04-21 15:09 | 37.04245 | 24.33901 | 15944 ft | 362 kts | 5° |
| 2026-04-21 15:10 | 37.06734 | 24.34399 | 15946 ft | 362 kts | 5° |
| 2026-04-21 15:10 | 37.09227 | 24.34852 | 15943 ft | 360 kts | 1° |
| 2026-04-21 15:10 | 37.11728 | 24.34976 | 15944 ft | 358 kts | 355° |
| 2026-04-21 15:10 | 37.14218 | 24.34921 | 15948 ft | 358 kts | 355° |
| 2026-04-21 15:11 | 37.16707 | 24.34860 | 15941 ft | 358 kts | 355° |
| 2026-04-21 15:11 | 37.19205 | 24.34800 | 15941 ft | 358 kts | 355° |
| 2026-04-21 15:11 | 37.21705 | 24.34740 | 15946 ft | 359 kts | 355° |
| 2026-04-21 15:11 | 37.24172 | 24.34686 | 15941 ft | 359 kts | 355° |
| 2026-04-21 15:12 | 37.26671 | 24.34631 | 15942 ft | 359 kts | 355° |
| 2026-04-21 15:12 | 37.29174 | 24.34576 | 15928 ft | 358 kts | 355° |
| 2026-04-21 15:12 | 37.31650 | 24.34523 | 15496 ft | 354 kts | 355° |
| 2026-04-21 15:12 | 37.34105 | 24.34465 | 14759 ft | 351 kts | 355° |
| 2026-04-21 15:13 | 37.35717 | 24.34422 | 14230 ft | 349 kts | 355° |
| 2026-04-21 15:13 | 37.38964 | 24.34317 | 13104 ft | 345 kts | 355° |
| 2026-04-21 15:13 | 37.41317 | 24.34232 | 12284 ft | 340 kts | 355° |
| 2026-04-21 15:13 | 37.43674 | 24.34142 | 11503 ft | 336 kts | 355° |
| 2026-04-21 15:14 | 37.45989 | 24.34061 | 10729 ft | 331 kts | 355° |
| 2026-04-21 15:14 | 37.48272 | 24.33978 | 10214 ft | 325 kts | 355° |
| 2026-04-21 15:14 | 37.50561 | 24.33889 | 10015 ft | 330 kts | 355° |
| 2026-04-21 15:14 | 37.52856 | 24.33797 | 9948 ft | 329 kts | 355° |
| 2026-04-21 15:15 | 37.55153 | 24.33701 | 9936 ft | 330 kts | 355° |
| 2026-04-21 15:15 | 37.57448 | 24.33607 | 9935 ft | 329 kts | 355° |
| 2026-04-21 15:15 | 37.59738 | 24.33515 | 9935 ft | 329 kts | 355° |
| 2026-04-21 15:15 | 37.62031 | 24.33420 | 9933 ft | 330 kts | 355° |
| 2026-04-21 15:16 | 37.64323 | 24.33324 | 9935 ft | 329 kts | 355° |
| 2026-04-21 15:16 | 37.66602 | 24.33236 | 9903 ft | 323 kts | 355° |
| 2026-04-21 15:16 | 37.68765 | 24.33165 | 9762 ft | 306 kts | 355° |
| 2026-04-21 15:16 | 37.70836 | 24.33106 | 9576 ft | 288 kts | 355° |
| 2026-04-21 15:17 | 37.72800 | 24.33056 | 9120 ft | 279 kts | 355° |
| 2026-04-21 15:17 | 37.74730 | 24.33008 | 8508 ft | 276 kts | 355° |
| 2026-04-21 15:17 | 37.76651 | 24.32961 | 7905 ft | 275 kts | 355° |
| 2026-04-21 15:17 | 37.78556 | 24.32912 | 7320 ft | 272 kts | 355° |
| 2026-04-21 15:18 | 37.80444 | 24.32848 | 6743 ft | 270 kts | 353° |
| 2026-04-21 15:18 | 37.82230 | 24.32308 | 6155 ft | 263 kts | 335° |
| 2026-04-21 15:18 | 37.83930 | 24.31450 | 5520 ft | 263 kts | 335° |
| 2026-04-21 15:18 | 37.85608 | 24.30590 | 4906 ft | 263 kts | 335° |
| 2026-04-21 15:19 | 37.87308 | 24.29714 | 4278 ft | 263 kts | 335° |
| 2026-04-21 15:19 | 37.89008 | 24.28858 | 3702 ft | 262 kts | 335° |
| 2026-04-21 15:19 | 37.90711 | 24.28012 | 3200 ft | 265 kts | 335° |
| 2026-04-21 15:19 | 37.92468 | 24.27148 | 3046 ft | 272 kts | 335° |
| 2026-04-21 15:20 | 37.93638 | 24.26573 | 3000 ft | 270 kts | 335° |
| 2026-04-21 15:20 | 37.95390 | 24.25712 | 2993 ft | 269 kts | 335° |
| 2026-04-21 15:20 | 37.97699 | 24.24605 | 2987 ft | 267 kts | 335° |
| 2026-04-21 15:20 | 37.99432 | 24.23762 | 2989 ft | 267 kts | 335° |
| 2026-04-21 15:21 | 38.00604 | 24.23192 | 2979 ft | 263 kts | 335° |
| 2026-04-21 15:21 | 38.02263 | 24.22372 | 2980 ft | 247 kts | 334° |
| 2026-04-21 15:21 | 38.03796 | 24.21612 | 2976 ft | 232 kts | 335° |
| 2026-04-21 15:21 | 38.05277 | 24.20907 | 2889 ft | 222 kts | 335° |
| 2026-04-21 15:22 | 38.06716 | 24.20225 | 2678 ft | 221 kts | 335° |
| 2026-04-21 15:22 | 38.08173 | 24.19536 | 2507 ft | 233 kts | 335° |
| 2026-04-21 15:22 | 38.09646 | 24.18599 | 2474 ft | 234 kts | 315° |
| 2026-04-21 15:22 | 38.10542 | 24.16949 | 2478 ft | 226 kts | 283° |
| 2026-04-21 15:23 | 38.10587 | 24.15024 | 2477 ft | 217 kts | 250° |
| 2026-04-21 15:23 | 38.10058 | 24.13264 | 2473 ft | 207 kts | 245° |
| 2026-04-21 15:23 | 38.09520 | 24.11637 | 2470 ft | 191 kts | 245° |
| 2026-04-21 15:23 | 38.09043 | 24.10135 | 2487 ft | 174 kts | 245° |
| 2026-04-21 15:24 | 38.08588 | 24.08752 | 2471 ft | 162 kts | 245° |
| 2026-04-21 15:24 | 38.08119 | 24.07598 | 2488 ft | 136 kts | 233° |
| 2026-04-21 15:24 | 38.07552 | 24.06749 | 2485 ft | 123 kts | 224° |
| 2026-04-21 15:24 | 38.06895 | 24.06010 | 2479 ft | 124 kts | 219° |
| 2026-04-21 15:25 | 38.06226 | 24.05343 | 2483 ft | 122 kts | 218° |
| 2026-04-21 15:25 | 38.05539 | 24.04681 | 2482 ft | 124 kts | 218° |
| 2026-04-21 15:25 | 38.04862 | 24.04033 | 2479 ft | 119 kts | 218° |
| 2026-04-21 15:25 | 38.04196 | 24.03395 | 2480 ft | 121 kts | 217° |
| 2026-04-21 15:26 | 38.03513 | 24.02741 | 2420 ft | 126 kts | 219° |
| 2026-04-21 15:26 | 38.02810 | 24.02069 | 2265 ft | 124 kts | 218° |
| 2026-04-21 15:26 | 38.02134 | 24.01422 | 2111 ft | 120 kts | 217° |
| 2026-04-21 15:26 | 38.01475 | 24.00792 | 1959 ft | 120 kts | 217° |
| 2026-04-21 15:27 | 38.00798 | 24.00144 | 1790 ft | 123 kts | 217° |
| 2026-04-21 15:27 | 38.00096 | 23.99473 | 1636 ft | 129 kts | 217° |
| 2026-04-21 15:27 | 37.99388 | 23.98797 | 1459 ft | 126 kts | 217° |
| 2026-04-21 15:27 | 37.98692 | 23.98132 | 1290 ft | 127 kts | 217° |
| 2026-04-21 15:28 | 37.97996 | 23.97467 | 1137 ft | 123 kts | 217° |
| 2026-04-21 15:28 | 37.97307 | 23.96810 | 960 ft | 129 kts | 216° |
| 2026-04-21 15:28 | 37.96595 | 23.96132 | 803 ft | 128 kts | 218° |
| 2026-04-21 15:28 | 37.95917 | 23.95484 | 645 ft | 123 kts | 220° |
| 2026-04-21 15:29 | 37.95227 | 23.94812 | 460 ft | 121 kts | 217° |
| 2026-04-21 15:29 | 37.94557 | 23.94179 | 328 ft | 121 kts | 219° |
| 2026-04-21 15:29 | 37.93940 | 23.93592 | 284 ft | 91 kts | 217° |
| 2026-04-21 15:29 | 37.93595 | 23.93261 | 280 ft | 33 kts | 217° |
| 2026-04-21 15:30 | 37.93482 | 23.93181 | 280 ft | 18 kts | 205° |
| 2026-04-21 15:30 | 37.93360 | 23.93139 | 278 ft | 15 kts | 188° |
| 2026-04-21 15:30 | 37.93247 | 23.93124 | 276 ft | 15 kts | 185° |
| 2026-04-21 15:30 | 37.93180 | 23.93118 | 276 ft | 8 kts | 166° |
| 2026-04-21 15:31 | 37.93176 | 23.93138 | 276 ft | 2 kts | 68° |
| 2026-04-21 15:31 | 37.93215 | 23.93177 | 276 ft | 17 kts | 30° |
| 2026-04-21 15:31 | 37.93338 | 23.93293 | 278 ft | 25 kts | 41° |
| 2026-04-21 15:31 | 37.93452 | 23.93403 | 279 ft | 18 kts | 37° |
| 2026-04-21 15:32 | 37.93561 | 23.93505 | 280 ft | 21 kts | 38° |
| 2026-04-21 15:32 | 37.93681 | 23.93621 | 281 ft | 22 kts | 37° |
| 2026-04-21 15:32 | 37.93803 | 23.93735 | 287 ft | 22 kts | 36° |
| 2026-04-21 15:32 | 37.93917 | 23.93843 | 289 ft | 22 kts | 37° |
| 2026-04-21 15:33 | 37.94004 | 23.93927 | 290 ft | 14 kts | 38° |
| 2026-04-21 15:33 | 37.94092 | 23.94011 | 291 ft | 18 kts | 36° |
| 2026-04-21 15:33 | 37.94199 | 23.94114 | 287 ft | 21 kts | 37° |
| 2026-04-21 15:33 | 37.94312 | 23.94222 | 288 ft | 20 kts | 37° |
| 2026-04-21 15:34 | 37.94410 | 23.94313 | 289 ft | 14 kts | 36° |
| 2026-04-21 15:34 | 37.94497 | 23.94394 | 293 ft | 17 kts | 36° |
| 2026-04-21 15:34 | 37.94601 | 23.94490 | 294 ft | 15 kts | 36° |
| 2026-04-21 15:34 | 37.94681 | 23.94586 | 293 ft | 17 kts | 73° |
| 2026-04-21 15:35 | 37.94629 | 23.94723 | 297 ft | 14 kts | 125° |
| 2026-04-21 15:35 | 37.94559 | 23.94838 | 292 ft | 19 kts | 127° |
| 2026-04-21 15:35 | 37.94478 | 23.94982 | 288 ft | 20 kts | 123° |
| 2026-04-21 15:35 | 37.94410 | 23.95087 | 287 ft | 9 kts | 128° |
| 2026-04-21 15:36 | 37.94360 | 23.95172 | 283 ft | 15 kts | 127° |
| 2026-04-21 15:36 | 37.94295 | 23.95282 | 283 ft | 13 kts | 127° |
| 2026-04-21 15:36 | 37.94236 | 23.95380 | 280 ft | 15 kts | 127° |
| 2026-04-21 15:36 | 37.94173 | 23.95486 | 278 ft | 15 kts | 127° |
| 2026-04-21 15:37 | 37.94115 | 23.95556 | 277 ft | 7 kts | 160° |
| 2026-04-21 15:37 | 37.94075 | 23.95542 | 277 ft | 4 kts | 207° |
| 2026-04-21 15:37 | 37.94043 | 23.95512 | 281 ft | 7 kts | 217° |
| 2026-04-21 15:37 | 37.94010 | 23.95480 | 278 ft | 1 kts | 217° |
| 2026-04-21 15:38 | 37.94000 | 23.95471 | 278 ft | 0 kts | 217° |
| 2026-04-21 15:38 | 37.93990 | 23.95461 | 278 ft | 4 kts | 217° |
| 2026-04-21 15:38 | 37.93959 | 23.95431 | 278 ft | 7 kts | 217° |
| 2026-04-21 15:38 | 37.93915 | 23.95385 | 283 ft | 8 kts | 230° |
| 2026-04-21 15:39 | 37.93909 | 23.95323 | 279 ft | 5 kts | 294° |
| 2026-04-21 15:39 | 37.93923 | 23.95291 | 282 ft | 6 kts | 301° |
| 2026-04-21 15:39 | 37.93954 | 23.95237 | 280 ft | 9 kts | 308° |
| 2026-04-21 15:39 | 37.93986 | 23.95187 | 282 ft | 4 kts | 309° |
| 2026-04-21 15:40 | 37.94003 | 23.95173 | 281 ft | 2 kts | 353° |
| 2026-04-21 15:40 | 37.94006 | 23.95177 | 281 ft | 1 kts | 27° |
| 2026-04-21 15:40 | 37.94017 | 23.95187 | 280 ft | 0 kts | 35° |